Time;durP1;ratioP1;P1;durP2;ratioP2;P2;SDS_P1;SDS_P2;PMS_P1;PMS_P2;Temp;Humidity;BMP_temperature;BMP_pressure;BME280_temperature;BME280_humidity;BME280_pressure;Samples;Min_cycle;Max_cycle;Signal;HPM_P1;HPM_P2
2022/12/28 00:01:37;;;;;;;0.10;0.10;;;;;;;;;;7391376;19;20596;-69
2022/12/28 00:04:07;;;;;;;0.10;0.10;;;;;;;;;;7389769;19;20681;-69
2022/12/28 00:06:36;;;;;;;0.10;0.10;;;;;;;;;;7387090;19;20662;-69
2022/12/28 00:09:06;;;;;;;0.10;0.10;;;;;;;;;;7387473;19;20603;-69
2022/12/28 00:11:35;;;;;;;0.10;0.10;;;;;;;;;;7389663;19;20658;-69
2022/12/28 00:14:04;;;;;;;0.10;0.10;;;;;;;;;;7388190;19;20619;-69
2022/12/28 00:16:34;;;;;;;0.00;0.00;;;;;;;;;;7388311;19;20658;-69
2022/12/28 00:19:06;;;;;;;0.10;0.10;;;;;;;;;;7389617;19;20726;-69
2022/12/28 00:21:36;;;;;;;0.10;0.10;;;;;;;;;;7391921;19;20626;-68
2022/12/28 00:24:05;;;;;;;0.10;0.10;;;;;;;;;;7389256;19;20639;-69
2022/12/28 00:26:35;;;;;;;0.10;0.10;;;;;;;;;;7389220;19;20667;-68
2022/12/28 00:29:04;;;;;;;0.10;0.10;;;;;;;;;;7389356;19;20730;-69
2022/12/28 00:31:34;;;;;;;0.10;0.10;;;;;;;;;;7390622;19;20587;-69
2022/12/28 00:34:06;;;;;;;0.10;0.10;;;;;;;;;;7388424;19;20745;-69
2022/12/28 00:36:36;;;;;;;0.10;0.10;;;;;;;;;;7390400;19;20663;-69
2022/12/28 00:39:05;;;;;;;0.10;0.10;;;;;;;;;;7389438;19;20611;-68
2022/12/28 00:41:35;;;;;;;0.10;0.10;;;;;;;;;;7389620;19;20666;-69
2022/12/28 00:44:04;;;;;;;0.10;0.10;;;;;;;;;;7389908;19;20647;-69
2022/12/28 00:46:33;;;;;;;0.10;0.10;;;;;;;;;;7385859;19;20650;-69
2022/12/28 00:49:02;;;;;;;0.10;0.10;;;;;;;;;;7388998;19;20657;-69
2022/12/28 00:51:34;;;;;;;0.10;0.10;;;;;;;;;;7389207;19;20742;-69
2022/12/28 00:54:02;;;;;;;0.10;0.10;;;;;;;;;;7388870;19;20695;-69
2022/12/28 00:56:31;;;;;;;0.10;0.10;;;;;;;;;;7389097;19;20627;-69
2022/12/28 00:59:01;;;;;;;0.10;0.10;;;;;;;;;;7386998;19;20681;-69
2022/12/28 01:01:31;;;;;;;0.10;0.10;;;;;;;;;;7387729;19;20639;-69
2022/12/28 01:04:00;;;;;;;0.10;0.10;;;;;;;;;;7389410;19;20672;-69
2022/12/28 01:06:29;;;;;;;0.10;0.10;;;;;;;;;;7389102;19;20611;-70
2022/12/28 01:09:02;;;;;;;0.10;0.10;;;;;;;;;;7387005;19;20627;-68
2022/12/28 01:11:32;;;;;;;0.10;0.10;;;;;;;;;;7390498;19;20694;-69
2022/12/28 01:14:02;;;;;;;0.10;0.10;;;;;;;;;;7388401;19;20706;-69
2022/12/28 01:16:32;;;;;;;0.10;0.10;;;;;;;;;;7387977;19;20647;-69
2022/12/28 01:19:02;;;;;;;0.10;0.10;;;;;;;;;;7386481;19;20631;-69
2022/12/28 01:21:32;;;;;;;0.10;0.10;;;;;;;;;;7393950;19;20690;-68
2022/12/28 01:24:04;;;;;;;0.10;0.10;;;;;;;;;;7393026;19;21269;-69
2022/12/28 01:26:34;;;;;;;0.10;0.10;;;;;;;;;;7391957;19;20706;-69
2022/12/28 01:29:03;;;;;;;0.10;0.10;;;;;;;;;;7392199;19;20643;-69
2022/12/28 01:31:34;;;;;;;0.10;0.10;;;;;;;;;;7393844;19;20676;-69
2022/12/28 01:34:03;;;;;;;0.10;0.10;;;;;;;;;;7397618;19;20710;-69
2022/12/28 01:36:35;;;;;;;0.10;0.10;;;;;;;;;;7392689;19;20646;-69
2022/12/28 01:39:07;;;;;;;0.10;0.10;;;;;;;;;;7393398;19;20723;-68
2022/12/28 01:41:38;;;;;;;0.10;0.10;;;;;;;;;;7395151;19;20627;-68
2022/12/28 01:44:22;;;;;;;0.10;0.10;;;;;;;;;;7394688;19;20661;-68
2022/12/28 01:46:54;;;;;;;0.10;0.10;;;;;;;;;;7391132;19;20670;-69
2022/12/28 01:49:26;;;;;;;0.10;0.10;;;;;;;;;;7394136;19;20627;-69
2022/12/28 01:51:56;;;;;;;0.10;0.10;;;;;;;;;;7394609;19;20623;-69
2022/12/28 01:54:29;;;;;;;0.10;0.10;;;;;;;;;;7393672;19;20610;-68
2022/12/28 01:56:59;;;;;;;0.10;0.10;;;;;;;;;;7393827;19;20619;-69
2022/12/28 01:59:30;;;;;;;0.10;0.10;;;;;;;;;;7394156;19;20587;-69
2022/12/28 02:01:58;;;;;;;0.10;0.10;;;;;;;;;;7395869;19;20754;-69
2022/12/28 02:04:28;;;;;;;0.10;0.10;;;;;;;;;;7393962;19;20635;-69
2022/12/28 02:06:57;;;;;;;0.10;0.10;;;;;;;;;;7393680;19;20691;-69
2022/12/28 02:09:32;;;;;;;0.10;0.10;;;;;;;;;;7394342;19;20714;-69
2022/12/28 02:12:01;;;;;;;0.10;0.10;;;;;;;;;;7394213;19;20753;-69
2022/12/28 02:14:31;;;;;;;0.10;0.10;;;;;;;;;;7392675;19;20684;-69
2022/12/28 02:16:59;;;;;;;0.10;0.10;;;;;;;;;;7391704;19;20717;-68
2022/12/28 02:19:34;;;;;;;0.10;0.10;;;;;;;;;;7392197;19;20741;-69
2022/12/28 02:22:13;;;;;;;0.10;0.10;;;;;;;;;;7395008;19;20554;-69
2022/12/28 02:25:03;;;;;;;0.10;0.10;;;;;;;;;;7392384;19;20606;-69
2022/12/28 02:27:39;;;;;;;0.10;0.10;;;;;;;;;;7391831;19;20682;-68
2022/12/28 02:30:11;;;;;;;0.10;0.10;;;;;;;;;;7391754;19;20634;-68
2022/12/28 02:32:48;;;;;;;0.10;0.10;;;;;;;;;;7393009;19;20674;-68
2022/12/28 02:35:21;;;;;;;0.10;0.10;;;;;;;;;;7393752;19;20626;-68
2022/12/28 02:37:51;;;;;;;0.10;0.10;;;;;;;;;;7392791;19;20752;-68
2022/12/28 02:40:23;;;;;;;0.10;0.10;;;;;;;;;;7392503;19;20615;-68
2022/12/28 02:42:53;;;;;;;0.10;0.10;;;;;;;;;;7393458;19;20634;-69
2022/12/28 02:51:03;;;;;;;0.10;0.10;;;;;;;;;;7391728;19;20631;-69
2022/12/28 02:53:39;;;;;;;0.10;0.10;;;;;;;;;;7391673;19;20686;-68
2022/12/28 02:56:15;;;;;;;0.00;0.00;;;;;;;;;;7389641;19;20650;-69
2022/12/28 02:58:55;;;;;;;0.10;0.10;;;;;;;;;;7391173;19;20694;-69
2022/12/28 03:01:31;;;;;;;0.10;0.10;;;;;;;;;;7392504;19;20618;-69
2022/12/28 03:04:07;;;;;;;0.07;0.07;;;;;;;;;;7391795;19;20646;-69
2022/12/28 03:09:29;;;;;;;0.10;0.10;;;;;;;;;;7391135;19;20595;-69
2022/12/28 03:12:01;;;;;;;0.10;0.10;;;;;;;;;;7391197;19;20631;-69
2022/12/28 03:14:34;;;;;;;0.10;0.10;;;;;;;;;;7392116;19;20638;-68
2022/12/28 03:33:30;;;;;;;0.10;0.10;;;;;;;;;;7389556;19;20827;-68
2022/12/28 03:36:04;;;;;;;0.00;0.00;;;;;;;;;;7389907;19;20717;-68
2022/12/28 03:38:36;;;;;;;0.10;0.10;;;;;;;;;;7390797;19;20729;-69
2022/12/28 03:41:10;;;;;;;0.00;0.00;;;;;;;;;;7390704;19;20641;-68
2022/12/28 03:43:40;;;;;;;0.10;0.10;;;;;;;;;;7390059;19;20611;-69
2022/12/28 03:46:13;;;;;;;0.10;0.10;;;;;;;;;;7388158;19;20760;-69
2022/12/28 03:48:48;;;;;;;0.10;0.10;;;;;;;;;;7390270;19;20617;-69
2022/12/28 03:51:22;;;;;;;0.10;0.10;;;;;;;;;;7390386;19;20642;-69
2022/12/28 03:53:51;;;;;;;0.10;0.10;;;;;;;;;;7389186;19;20627;-68
2022/12/28 03:56:24;;;;;;;0.10;0.10;;;;;;;;;;7388226;19;20650;-69
2022/12/28 03:58:56;;;;;;;0.10;0.10;;;;;;;;;;7390954;19;20750;-69
2022/12/28 04:01:28;;;;;;;0.10;0.10;;;;;;;;;;7389576;19;21143;-69
2022/12/28 04:04:00;;;;;;;0.10;0.10;;;;;;;;;;7389747;19;20673;-69
2022/12/28 04:06:29;;;;;;;0.10;0.10;;;;;;;;;;7388734;19;20748;-69
2022/12/28 04:08:59;;;;;;;0.10;0.10;;;;;;;;;;7390580;19;20761;-69
2022/12/28 04:11:31;;;;;;;0.10;0.10;;;;;;;;;;7389667;19;20611;-68
2022/12/28 04:14:00;;;;;;;0.10;0.10;;;;;;;;;;7388863;19;20622;-69
2022/12/28 04:16:34;;;;;;;0.10;0.10;;;;;;;;;;7389100;19;20663;-69
2022/12/28 04:19:06;;;;;;;0.20;0.20;;;;;;;;;;7388997;19;20615;-69
2022/12/28 04:21:36;;;;;;;0.10;0.10;;;;;;;;;;7389805;19;20618;-69
2022/12/28 04:24:05;;;;;;;0.10;0.10;;;;;;;;;;7388994;19;20626;-69
2022/12/28 04:26:34;;;;;;;0.10;0.10;;;;;;;;;;7387931;19;20757;-69
2022/12/28 04:29:04;;;;;;;0.10;0.10;;;;;;;;;;7388428;19;20665;-69
2022/12/28 04:31:43;;;;;;;0.10;0.10;;;;;;;;;;7389610;19;20757;-69
2022/12/28 04:34:17;;;;;;;0.10;0.10;;;;;;;;;;7387735;19;20611;-69
2022/12/28 04:36:54;;;;;;;0.10;0.10;;;;;;;;;;7386742;19;20805;-69
2022/12/28 04:39:24;;;;;;;0.10;0.10;;;;;;;;;;7386044;19;20765;-69
2022/12/28 04:41:53;;;;;;;0.10;0.10;;;;;;;;;;7391826;19;20663;-69
2022/12/28 04:44:21;;;;;;;0.10;0.10;;;;;;;;;;7389477;19;20760;-69
2022/12/28 04:46:51;;;;;;;0.10;0.10;;;;;;;;;;7389299;19;20635;-69
2022/12/28 04:49:22;;;;;;;0.10;0.10;;;;;;;;;;7388366;19;20687;-69
2022/12/28 04:51:51;;;;;;;0.00;0.00;;;;;;;;;;7388155;19;20687;-69
2022/12/28 04:54:20;;;;;;;0.10;0.10;;;;;;;;;;7388101;19;20673;-68
2022/12/28 04:56:49;;;;;;;0.10;0.10;;;;;;;;;;7387604;19;20755;-69
2022/12/28 04:59:18;;;;;;;0.10;0.10;;;;;;;;;;7388067;19;20647;-69
2022/12/28 05:01:46;;;;;;;0.10;0.10;;;;;;;;;;7389488;19;20683;-68
2022/12/28 05:04:15;;;;;;;0.10;0.10;;;;;;;;;;7390448;19;20629;-69
2022/12/28 05:06:47;;;;;;;0.10;0.10;;;;;;;;;;7388629;19;21415;-69
2022/12/28 05:09:18;;;;;;;0.10;0.10;;;;;;;;;;7388730;19;20631;-69
2022/12/28 05:11:47;;;;;;;0.10;0.10;;;;;;;;;;7390194;19;20633;-69
2022/12/28 05:14:16;;;;;;;0.10;0.10;;;;;;;;;;7386034;19;20683;-69
2022/12/28 05:16:45;;;;;;;0.10;0.10;;;;;;;;;;7386690;19;20682;-69
2022/12/28 05:19:14;;;;;;;0.10;0.10;;;;;;;;;;7386181;19;20627;-69
2022/12/28 05:21:42;;;;;;;0.10;0.10;;;;;;;;;;7388116;19;20676;-69
2022/12/28 05:24:14;;;;;;;0.10;0.10;;;;;;;;;;7386968;19;20603;-69
2022/12/28 05:26:43;;;;;;;0.10;0.10;;;;;;;;;;7387978;19;20985;-69
2022/12/28 05:29:12;;;;;;;0.10;0.10;;;;;;;;;;7389614;19;20599;-69
2022/12/28 05:31:41;;;;;;;0.10;0.10;;;;;;;;;;7387085;19;20611;-69
2022/12/28 05:34:10;;;;;;;0.10;0.10;;;;;;;;;;7387996;19;20655;-70
2022/12/28 05:36:39;;;;;;;0.10;0.10;;;;;;;;;;7385382;19;20651;-69
2022/12/28 05:39:08;;;;;;;0.10;0.10;;;;;;;;;;7387202;19;20619;-70
2022/12/28 05:41:40;;;;;;;0.10;0.10;;;;;;;;;;7385704;19;20619;-71
2022/12/28 05:44:09;;;;;;;0.10;0.10;;;;;;;;;;7387422;19;20709;-72
2022/12/28 05:46:38;;;;;;;0.10;0.10;;;;;;;;;;7384843;19;20659;-72
2022/12/28 05:49:10;;;;;;;0.10;0.10;;;;;;;;;;7386625;19;20673;-71
2022/12/28 05:51:38;;;;;;;0.10;0.10;;;;;;;;;;7386447;19;21549;-72
2022/12/28 05:54:07;;;;;;;0.10;0.10;;;;;;;;;;7385574;19;20737;-71
2022/12/28 05:56:36;;;;;;;0.10;0.10;;;;;;;;;;7386699;19;20668;-72
2022/12/28 05:59:08;;;;;;;0.10;0.10;;;;;;;;;;7385719;19;20634;-71
2022/12/28 06:01:38;;;;;;;0.10;0.10;;;;;;;;;;7388654;19;20655;-71
2022/12/28 06:04:09;;;;;;;0.10;0.10;;;;;;;;;;7385150;19;20606;-71
2022/12/28 06:06:38;;;;;;;0.10;0.10;;;;;;;;;;7390781;19;20615;-71
2022/12/28 06:09:07;;;;;;;0.10;0.10;;;;;;;;;;7394835;19;20563;-71
2022/12/28 06:11:36;;;;;;;0.10;0.10;;;;;;;;;;7391424;19;20623;-71
2022/12/28 06:14:08;;;;;;;0.10;0.10;;;;;;;;;;7392861;19;20567;-73
2022/12/28 06:16:37;;;;;;;0.00;0.00;;;;;;;;;;7392768;19;20716;-72
2022/12/28 06:19:07;;;;;;;0.10;0.10;;;;;;;;;;7392580;19;20753;-71
2022/12/28 06:21:37;;;;;;;0.10;0.10;;;;;;;;;;7392837;19;20622;-71
2022/12/28 06:24:07;;;;;;;0.10;0.10;;;;;;;;;;7393130;19;20745;-70
2022/12/28 06:26:37;;;;;;;0.10;0.10;;;;;;;;;;7391964;19;20846;-70
2022/12/28 06:29:08;;;;;;;0.10;0.10;;;;;;;;;;7393864;19;20655;-70
2022/12/28 06:31:38;;;;;;;0.10;0.10;;;;;;;;;;7394087;19;20644;-70
2022/12/28 06:34:08;;;;;;;0.10;0.10;;;;;;;;;;7394257;19;20587;-71
2022/12/28 06:36:38;;;;;;;0.10;0.10;;;;;;;;;;7391030;19;20821;-70
2022/12/28 06:39:09;;;;;;;0.10;0.10;;;;;;;;;;7392775;19;20685;-70
2022/12/28 06:41:38;;;;;;;0.10;0.10;;;;;;;;;;7392570;19;20630;-70
2022/12/28 06:44:10;;;;;;;0.10;0.10;;;;;;;;;;7392715;19;20728;-71
2022/12/28 06:46:40;;;;;;;0.10;0.10;;;;;;;;;;7389862;19;20827;-70
2022/12/28 06:49:09;;;;;;;0.10;0.10;;;;;;;;;;7392178;19;20615;-70
2022/12/28 06:51:40;;;;;;;0.10;0.10;;;;;;;;;;7394854;19;20599;-69
2022/12/28 06:54:10;;;;;;;0.10;0.10;;;;;;;;;;7393186;19;20713;-69
2022/12/28 06:56:39;;;;;;;0.10;0.10;;;;;;;;;;7391375;19;20726;-70
2022/12/28 06:59:10;;;;;;;0.10;0.10;;;;;;;;;;7393328;19;21440;-69
2022/12/28 07:01:43;;;;;;;0.10;0.10;;;;;;;;;;7392388;19;20603;-69
2022/12/28 07:04:12;;;;;;;0.10;0.10;;;;;;;;;;7394180;19;20664;-69
2022/12/28 07:06:42;;;;;;;0.10;0.10;;;;;;;;;;7392749;19;20728;-69
2022/12/28 07:09:12;;;;;;;0.10;0.10;;;;;;;;;;7394006;19;20690;-69
2022/12/28 07:11:41;;;;;;;0.03;0.03;;;;;;;;;;7393591;19;20637;-69
2022/12/28 07:14:13;;;;;;;0.10;0.10;;;;;;;;;;7391603;19;20595;-69
2022/12/28 07:16:42;;;;;;;0.10;0.10;;;;;;;;;;7390676;19;20639;-69
2022/12/28 07:19:11;;;;;;;0.10;0.10;;;;;;;;;;7392426;19;20611;-69
2022/12/28 07:21:41;;;;;;;0.10;0.10;;;;;;;;;;7390276;19;20630;-69
2022/12/28 07:24:10;;;;;;;0.10;0.10;;;;;;;;;;7391810;19;20603;-69
2022/12/28 07:26:40;;;;;;;0.10;0.10;;;;;;;;;;7392040;19;20623;-68
2022/12/28 07:29:09;;;;;;;0.10;0.10;;;;;;;;;;7393608;19;21330;-68
2022/12/28 07:31:42;;;;;;;0.10;0.10;;;;;;;;;;7392933;19;20671;-68
2022/12/28 07:34:10;;;;;;;0.10;0.10;;;;;;;;;;7390892;19;20686;-68
2022/12/28 07:36:39;;;;;;;0.10;0.10;;;;;;;;;;7392307;19;20749;-68
2022/12/28 07:39:09;;;;;;;0.13;0.13;;;;;;;;;;7393050;19;20615;-67
2022/12/28 07:41:38;;;;;;;0.17;0.17;;;;;;;;;;7390774;19;20612;-67
2022/12/28 07:44:07;;;;;;;0.10;0.10;;;;;;;;;;7390711;19;20606;-67
2022/12/28 07:46:37;;;;;;;0.10;0.10;;;;;;;;;;7389397;19;20737;-67
2022/12/28 07:49:09;;;;;;;0.10;0.10;;;;;;;;;;7390280;19;20643;-68
2022/12/28 07:51:39;;;;;;;0.10;0.10;;;;;;;;;;7385925;19;20806;-68
2022/12/28 07:54:08;;;;;;;0.10;0.10;;;;;;;;;;7389925;19;20702;-67
2022/12/28 07:56:37;;;;;;;0.10;0.10;;;;;;;;;;7390590;19;20619;-68
2022/12/28 07:59:07;;;;;;;0.10;0.10;;;;;;;;;;7391847;19;20686;-66
2022/12/28 08:01:38;;;;;;;0.10;0.10;;;;;;;;;;7387753;19;20622;-66
2022/12/28 08:04:10;;;;;;;0.10;0.10;;;;;;;;;;7391237;19;20690;-66
2022/12/28 08:06:40;;;;;;;0.10;0.10;;;;;;;;;;7390599;19;20685;-66
2022/12/28 08:09:10;;;;;;;0.10;0.10;;;;;;;;;;7392218;19;20596;-66
2022/12/28 08:11:40;;;;;;;0.10;0.10;;;;;;;;;;7392087;19;20599;-66
2022/12/28 08:14:09;;;;;;;0.10;0.10;;;;;;;;;;7391995;19;20706;-66
2022/12/28 08:16:39;;;;;;;0.10;0.10;;;;;;;;;;7390741;19;20691;-66
2022/12/28 08:19:15;;;;;;;0.10;0.10;;;;;;;;;;7389759;19;20587;-66
2022/12/28 08:21:45;;;;;;;0.10;0.10;;;;;;;;;;7388191;19;20749;-66
2022/12/28 08:24:16;;;;;;;0.10;0.10;;;;;;;;;;7387634;19;20681;-66
2022/12/28 08:26:45;;;;;;;0.10;0.10;;;;;;;;;;7387708;19;20655;-66
2022/12/28 08:29:16;;;;;;;0.10;0.10;;;;;;;;;;7388902;19;20731;-66
2022/12/28 08:31:46;;;;;;;0.10;0.10;;;;;;;;;;7389019;19;20749;-66
2022/12/28 08:34:18;;;;;;;0.00;0.00;;;;;;;;;;7390231;19;20718;-66
2022/12/28 08:36:47;;;;;;;0.10;0.10;;;;;;;;;;7388402;19;20658;-66
2022/12/28 08:39:16;;;;;;;0.10;0.10;;;;;;;;;;7389578;19;20689;-66
2022/12/28 08:41:45;;;;;;;0.10;0.10;;;;;;;;;;7388405;19;20738;-66
2022/12/28 08:44:14;;;;;;;0.10;0.10;;;;;;;;;;7387215;19;20623;-66
2022/12/28 08:46:42;;;;;;;0.10;0.10;;;;;;;;;;7385757;19;20631;-67
2022/12/28 08:49:14;;;;;;;0.10;0.10;;;;;;;;;;7385281;19;20607;-67
2022/12/28 08:51:46;;;;;;;0.10;0.10;;;;;;;;;;7390108;19;20768;-67
2022/12/28 08:54:15;;;;;;;0.10;0.10;;;;;;;;;;7388158;19;20697;-68
2022/12/28 08:56:45;;;;;;;0.10;0.10;;;;;;;;;;7387463;19;20607;-68
2022/12/28 08:59:15;;;;;;;0.10;0.10;;;;;;;;;;7388486;19;20824;-67
2022/12/28 09:01:44;;;;;;;0.10;0.10;;;;;;;;;;7387747;19;20646;-67
2022/12/28 09:04:15;;;;;;;0.07;0.07;;;;;;;;;;7387087;19;20775;-68
2022/12/28 09:06:46;;;;;;;0.10;0.10;;;;;;;;;;7387507;19;20737;-67
2022/12/28 09:09:16;;;;;;;0.10;0.10;;;;;;;;;;7382414;19;20979;-67
2022/12/28 09:11:45;;;;;;;0.10;0.10;;;;;;;;;;7387730;19;20603;-67
2022/12/28 09:14:15;;;;;;;0.10;0.10;;;;;;;;;;7384252;19;20737;-67
2022/12/28 09:16:44;;;;;;;0.10;0.10;;;;;;;;;;7385878;19;20753;-67
2022/12/28 09:19:15;;;;;;;0.10;0.10;;;;;;;;;;7387585;19;20666;-67
2022/12/28 09:21:47;;;;;;;0.10;0.10;;;;;;;;;;7385478;19;20571;-67
2022/12/28 09:24:17;;;;;;;0.20;0.20;;;;;;;;;;7385129;19;20607;-65
2022/12/28 09:26:46;;;;;;;0.10;0.10;;;;;;;;;;7384171;19;20825;-67
2022/12/28 09:29:15;;;;;;;0.10;0.10;;;;;;;;;;7384716;19;20658;-67
2022/12/28 09:31:44;;;;;;;0.10;0.10;;;;;;;;;;7385100;19;20643;-67
2022/12/28 09:34:14;;;;;;;0.10;0.10;;;;;;;;;;7386866;19;20717;-67
2022/12/28 09:36:44;;;;;;;0.10;0.10;;;;;;;;;;7386862;19;20695;-67
2022/12/28 09:39:17;;;;;;;0.10;0.10;;;;;;;;;;7386725;19;20626;-67
2022/12/28 09:41:48;;;;;;;0.10;0.10;;;;;;;;;;7392675;19;20607;-67
2022/12/28 09:44:24;;;;;;;0.10;0.10;;;;;;;;;;7393794;19;20611;-67
2022/12/28 09:46:55;;;;;;;0.10;0.10;;;;;;;;;;7391696;19;20656;-67
2022/12/28 09:49:27;;;;;;;0.10;0.10;;;;;;;;;;7392608;19;20728;-66
2022/12/28 09:51:57;;;;;;;0.00;0.00;;;;;;;;;;7393168;19;20733;-67
2022/12/28 09:54:29;;;;;;;0.10;0.10;;;;;;;;;;7392334;19;20753;-67
2022/12/28 09:56:58;;;;;;;0.10;0.10;;;;;;;;;;7390907;19;20619;-66
2022/12/28 09:59:28;;;;;;;0.10;0.10;;;;;;;;;;7391841;19;20626;-67
2022/12/28 10:01:58;;;;;;;0.10;0.10;;;;;;;;;;7388830;19;20670;-67
2022/12/28 10:04:27;;;;;;;0.10;0.10;;;;;;;;;;7392472;19;20698;-67
2022/12/28 10:07:00;;;;;;;0.00;0.00;;;;;;;;;;7387373;19;20674;-67
2022/12/28 10:09:33;;;;;;;0.00;0.00;;;;;;;;;;7387086;19;20584;-67
2022/12/28 10:12:08;;;;;;;0.10;0.10;;;;;;;;;;7391093;19;20695;-67
2022/12/28 10:14:37;;;;;;;0.10;0.10;;;;;;;;;;7383406;19;20586;-67
2022/12/28 10:17:08;;;;;;;0.10;0.10;;;;;;;;;;7389916;19;20663;-67
2022/12/28 10:19:37;;;;;;;0.10;0.10;;;;;;;;;;7391348;19;20685;-67
2022/12/28 10:22:08;;;;;;;0.10;0.10;;;;;;;;;;7388638;19;20711;-66
2022/12/28 10:24:41;;;;;;;0.10;0.10;;;;;;;;;;7390239;19;20639;-65
2022/12/28 10:27:23;;;;;;;0.10;0.10;;;;;;;;;;7389363;19;20607;-67
2022/12/28 10:29:53;;;;;;;0.10;0.10;;;;;;;;;;7391688;19;20591;-66
2022/12/28 10:32:22;;;;;;;0.10;0.10;;;;;;;;;;7388697;19;20677;-67
2022/12/28 10:34:58;;;;;;;0.10;0.10;;;;;;;;;;7380799;19;20697;-66
2022/12/28 10:37:28;;;;;;;0.10;0.10;;;;;;;;;;7389758;19;20630;-67
2022/12/28 10:40:01;;;;;;;0.10;0.10;;;;;;;;;;7390171;19;20671;-66
2022/12/28 10:42:32;;;;;;;0.10;0.10;;;;;;;;;;7390031;19;21320;-67
2022/12/28 10:45:04;;;;;;;0.10;0.10;;;;;;;;;;7390722;19;20671;-67
2022/12/28 10:47:36;;;;;;;0.10;0.10;;;;;;;;;;7390967;19;20697;-67
2022/12/28 10:50:06;;;;;;;0.07;0.07;;;;;;;;;;7391492;19;20595;-67
2022/12/28 10:52:35;;;;;;;0.00;0.00;;;;;;;;;;7389294;19;20599;-67
2022/12/28 10:55:27;;;;;;;0.10;0.10;;;;;;;;;;7388170;19;20683;-66
2022/12/28 10:58:16;;;;;;;0.10;0.10;;;;;;;;;;7388830;19;20689;-66
2022/12/28 11:00:45;;;;;;;0.10;0.10;;;;;;;;;;7388885;19;20603;-67
2022/12/28 11:03:19;;;;;;;0.10;0.10;;;;;;;;;;7391325;19;21035;-66
2022/12/28 11:05:48;;;;;;;0.10;0.10;;;;;;;;;;7387267;19;20651;-66
2022/12/28 11:08:17;;;;;;;0.10;0.10;;;;;;;;;;7390665;19;20595;-67
2022/12/28 11:10:46;;;;;;;0.00;0.00;;;;;;;;;;7391553;19;20726;-66
2022/12/28 11:13:22;;;;;;;0.10;0.10;;;;;;;;;;7387732;19;20684;-67
2022/12/28 11:15:51;;;;;;;0.10;0.10;;;;;;;;;;7389811;19;20626;-67
2022/12/28 11:18:20;;;;;;;0.10;0.10;;;;;;;;;;7388141;19;20653;-66
2022/12/28 11:20:50;;;;;;;0.10;0.10;;;;;;;;;;7390605;19;20640;-67
2022/12/28 11:23:21;;;;;;;0.10;0.10;;;;;;;;;;7381721;19;20725;-67
2022/12/28 11:25:50;;;;;;;0.10;0.10;;;;;;;;;;7390164;19;20623;-67
2022/12/28 11:28:22;;;;;;;0.10;0.10;;;;;;;;;;7383479;19;20619;-67
2022/12/28 11:30:52;;;;;;;0.10;0.10;;;;;;;;;;7390703;19;20615;-66
2022/12/28 11:33:27;;;;;;;0.10;0.10;;;;;;;;;;7392926;19;20603;-66
2022/12/28 11:35:56;;;;;;;0.10;0.10;;;;;;;;;;7389997;19;20631;-67
2022/12/28 11:38:42;;;;;;;0.10;0.10;;;;;;;;;;7390562;19;20595;-67
2022/12/28 11:41:12;;;;;;;0.10;0.10;;;;;;;;;;7388789;19;20643;-67
2022/12/28 11:43:54;;;;;;;0.10;0.10;;;;;;;;;;7391332;19;20729;-66
2022/12/28 11:46:38;;;;;;;0.10;0.10;;;;;;;;;;7388610;19;20698;-66
2022/12/28 11:49:08;;;;;;;0.10;0.10;;;;;;;;;;7392572;19;21014;-66
2022/12/28 11:51:37;;;;;;;0.10;0.10;;;;;;;;;;7390271;19;20634;-66
2022/12/28 11:54:07;;;;;;;0.10;0.10;;;;;;;;;;7390696;19;20603;-66
2022/12/28 11:56:51;;;;;;;0.10;0.10;;;;;;;;;;7390596;19;20650;-66
2022/12/28 11:59:27;;;;;;;0.10;0.10;;;;;;;;;;7389400;19;20763;-66
2022/12/28 12:01:56;;;;;;;0.10;0.10;;;;;;;;;;7390330;19;20752;-67
2022/12/28 12:04:36;;;;;;;0.10;0.10;;;;;;;;;;7390199;19;20592;-66
2022/12/28 12:07:28;;;;;;;0.10;0.10;;;;;;;;;;7389385;19;21087;-67
2022/12/28 12:10:12;;;;;;;0.10;0.10;;;;;;;;;;7390428;19;20706;-66
2022/12/28 12:12:49;;;;;;;0.00;0.00;;;;;;;;;;7390567;19;20607;-67
2022/12/28 12:15:21;;;;;;;0.00;0.00;;;;;;;;;;7386887;19;20631;-66
2022/12/28 12:17:52;;;;;;;0.00;0.00;;;;;;;;;;7389801;19;20627;-66
2022/12/28 12:20:26;;;;;;;0.10;0.10;;;;;;;;;;7387464;19;20752;-66
2022/12/28 12:22:57;;;;;;;0.10;0.10;;;;;;;;;;7388386;19;20607;-67
2022/12/28 12:25:29;;;;;;;0.10;0.10;;;;;;;;;;7387301;19;20773;-67
2022/12/28 12:27:59;;;;;;;0.10;0.10;;;;;;;;;;7389900;19;20588;-67
2022/12/28 12:30:31;;;;;;;0.10;0.10;;;;;;;;;;7390890;19;20612;-67
2022/12/28 12:33:01;;;;;;;0.10;0.10;;;;;;;;;;7390879;19;20591;-67
2022/12/28 12:35:31;;;;;;;0.10;0.10;;;;;;;;;;7388979;19;20662;-67
2022/12/28 12:38:02;;;;;;;0.10;0.10;;;;;;;;;;7389670;19;20583;-67
2022/12/28 12:40:49;;;;;;;0.10;0.10;;;;;;;;;;7390735;19;21322;-67
2022/12/28 12:43:28;;;;;;;0.03;0.03;;;;;;;;;;7387099;19;21385;-67
2022/12/28 12:46:04;;;;;;;0.10;0.10;;;;;;;;;;7386796;19;20663;-67
2022/12/28 12:48:37;;;;;;;0.10;0.10;;;;;;;;;;7381119;19;20626;-66
2022/12/28 12:51:23;;;;;;;0.10;0.10;;;;;;;;;;7387199;19;20627;-67
2022/12/28 12:54:00;;;;;;;0.10;0.10;;;;;;;;;;7380946;19;20632;-66
2022/12/28 12:56:33;;;;;;;0.10;0.10;;;;;;;;;;7384187;19;20657;-66
2022/12/28 12:59:06;;;;;;;0.10;0.10;;;;;;;;;;7388687;19;20990;-67
2022/12/28 13:01:41;;;;;;;0.10;0.10;;;;;;;;;;7385284;19;20598;-67
2022/12/28 13:04:11;;;;;;;0.10;0.10;;;;;;;;;;7377875;19;20567;-67
2022/12/28 13:06:41;;;;;;;0.10;0.10;;;;;;;;;;7386300;19;20707;-67
2022/12/28 13:09:16;;;;;;;0.10;0.10;;;;;;;;;;7386618;19;20660;-67
2022/12/28 13:11:45;;;;;;;0.10;0.10;;;;;;;;;;7386725;19;20678;-67
2022/12/28 13:14:19;;;;;;;0.00;0.00;;;;;;;;;;7384582;19;20747;-67
2022/12/28 13:16:53;;;;;;;0.13;0.13;;;;;;;;;;7392899;19;20626;-66
2022/12/28 13:19:23;;;;;;;0.10;0.10;;;;;;;;;;7395705;19;20599;-66
2022/12/28 13:21:52;;;;;;;0.10;0.10;;;;;;;;;;7395560;19;20671;-66
2022/12/28 13:24:22;;;;;;;0.07;0.07;;;;;;;;;;7390472;19;20606;-67
2022/12/28 13:26:51;;;;;;;0.10;0.10;;;;;;;;;;7394260;19;20685;-67
2022/12/28 13:29:21;;;;;;;0.10;0.10;;;;;;;;;;7384166;19;20646;-67
2022/12/28 13:31:53;;;;;;;0.10;0.10;;;;;;;;;;7394947;19;20663;-66
2022/12/28 13:34:24;;;;;;;0.10;0.10;;;;;;;;;;7394268;19;20637;-67
2022/12/28 13:36:56;;;;;;;0.10;0.10;;;;;;;;;;7392222;19;20726;-67
2022/12/28 13:39:26;;;;;;;0.10;0.10;;;;;;;;;;7386182;19;21243;-66
2022/12/28 13:41:57;;;;;;;0.10;0.10;;;;;;;;;;7391202;19;20615;-67
2022/12/28 13:44:37;;;;;;;0.10;0.10;;;;;;;;;;7393647;19;20647;-67
2022/12/28 13:47:11;;;;;;;0.10;0.10;;;;;;;;;;7390303;19;20626;-67
2022/12/28 13:49:42;;;;;;;0.10;0.10;;;;;;;;;;7391738;19;20732;-67
2022/12/28 13:52:13;;;;;;;0.10;0.10;;;;;;;;;;7394181;19;20706;-67
2022/12/28 13:54:42;;;;;;;0.10;0.10;;;;;;;;;;7391575;19;20575;-66
2022/12/28 13:57:14;;;;;;;0.00;0.00;;;;;;;;;;7380303;19;20705;-66
2022/12/28 13:59:43;;;;;;;0.10;0.10;;;;;;;;;;7392480;19;20656;-67
2022/12/28 14:02:18;;;;;;;0.00;0.00;;;;;;;;;;7393458;19;20754;-66
2022/12/28 14:04:47;;;;;;;0.10;0.10;;;;;;;;;;7392845;19;20740;-66
2022/12/28 14:07:18;;;;;;;0.10;0.10;;;;;;;;;;7380822;19;20678;-67
2022/12/28 14:09:47;;;;;;;0.10;0.10;;;;;;;;;;7392179;19;20639;-65
2022/12/28 14:12:16;;;;;;;0.10;0.10;;;;;;;;;;7394431;19;21028;-66
2022/12/28 14:14:46;;;;;;;0.00;0.00;;;;;;;;;;7389015;19;20752;-65
2022/12/28 14:17:18;;;;;;;0.10;0.10;;;;;;;;;;7382513;19;20662;-66
2022/12/28 14:19:47;;;;;;;0.10;0.10;;;;;;;;;;7391593;19;20679;-66
2022/12/28 14:22:30;;;;;;;0.10;0.10;;;;;;;;;;7379998;19;20664;-66
2022/12/28 14:25:02;;;;;;;0.10;0.10;;;;;;;;;;7391575;19;20618;-66
2022/12/28 14:27:32;;;;;;;0.10;0.10;;;;;;;;;;7391667;19;20709;-67
2022/12/28 14:30:01;;;;;;;0.10;0.10;;;;;;;;;;7393677;19;20964;-66
2022/12/28 14:32:32;;;;;;;0.10;0.10;;;;;;;;;;7393575;19;20595;-66
2022/12/28 14:35:02;;;;;;;0.10;0.10;;;;;;;;;;7391174;19;20768;-66
2022/12/28 14:37:33;;;;;;;0.10;0.10;;;;;;;;;;7393648;19;20636;-66
2022/12/28 14:40:03;;;;;;;0.10;0.10;;;;;;;;;;7394254;19;20603;-66
2022/12/28 14:42:32;;;;;;;0.10;0.10;;;;;;;;;;7392102;19;20654;-66
2022/12/28 14:45:01;;;;;;;0.10;0.10;;;;;;;;;;7393842;19;21389;-67
2022/12/28 14:47:37;;;;;;;0.10;0.10;;;;;;;;;;7392126;19;20741;-66
2022/12/28 14:50:15;;;;;;;0.10;0.10;;;;;;;;;;7393779;19;20591;-66
2022/12/28 14:52:45;;;;;;;0.10;0.10;;;;;;;;;;7393141;19;20583;-66
2022/12/28 14:55:25;;;;;;;0.10;0.10;;;;;;;;;;7390897;19;20678;-65
2022/12/28 14:57:55;;;;;;;0.10;0.10;;;;;;;;;;7391153;19;20615;-66
2022/12/28 15:00:25;;;;;;;0.10;0.10;;;;;;;;;;7393559;19;20717;-66
2022/12/28 15:02:57;;;;;;;0.10;0.10;;;;;;;;;;7392727;19;20726;-66
2022/12/28 15:05:40;;;;;;;0.10;0.10;;;;;;;;;;7391169;19;20725;-64
2022/12/28 15:08:09;;;;;;;0.10;0.10;;;;;;;;;;7391377;19;20635;-66
2022/12/28 15:10:40;;;;;;;0.00;0.00;;;;;;;;;;7391890;19;20660;-66
2022/12/28 15:13:10;;;;;;;0.10;0.10;;;;;;;;;;7393399;19;20698;-66
2022/12/28 15:15:39;;;;;;;0.10;0.10;;;;;;;;;;7389483;19;20800;-67
2022/12/28 15:18:10;;;;;;;0.10;0.10;;;;;;;;;;7394398;19;20648;-66
2022/12/28 15:20:40;;;;;;;0.10;0.10;;;;;;;;;;7389039;19;20746;-67
2022/12/28 15:23:08;;;;;;;0.10;0.10;;;;;;;;;;7391238;19;20754;-67
2022/12/28 15:25:37;;;;;;;0.10;0.10;;;;;;;;;;7392001;19;20674;-67
2022/12/28 15:28:06;;;;;;;0.10;0.10;;;;;;;;;;7392811;19;20575;-67
2022/12/28 15:30:35;;;;;;;0.10;0.10;;;;;;;;;;7393492;19;20600;-67
2022/12/28 15:33:04;;;;;;;0.10;0.10;;;;;;;;;;7391437;19;20639;-67